Open Full Screen Window  High Contrast Mode
Wind Gusting 00 knots
08
July 29, 2016 2:35 PM CDT
Weather Information
Wind Direction
  080 °
Wind Speed
  08 kt (9 mph)
Wind Gust
  00 kt (0 mph)
Variable Wind
050°
110°
Altimeter
30.09 in
Visibility
10 SM
Temperature
23° C
73° F
Dewpoint
15° C
59° F
Humidity
61%
1hr Rain Fall
00.00 in.
24hr Rain Fall
00.00 in.
Sky Condition
Few @ 4,600 ft
VFR

METAR KMDS 291935Z AUTO 08008KT 050V110 10SM FEW046 23/15 A3009 RMK AO2

*Background is not an actual portrayal of the airport.